sensor_id;sensor_type;location;lat;lon;timestamp;P1;durP1;ratioP1;P2;durP2;ratioP2
21507;SDS011;10915;54.352;9.074;2022-12-07T00:01:42;3.57;;;1.00;;
21507;SDS011;10915;54.352;9.074;2022-12-07T00:04:13;9.00;;;1.90;;
21507;SDS011;10915;54.352;9.074;2022-12-07T00:06:41;3.10;;;1.10;;
21507;SDS011;10915;54.352;9.074;2022-12-07T00:09:12;7.17;;;1.40;;
21507;SDS011;10915;54.352;9.074;2022-12-07T00:11:42;6.80;;;1.60;;
21507;SDS011;10915;54.352;9.074;2022-12-07T00:14:12;6.60;;;1.30;;
21507;SDS011;10915;54.352;9.074;2022-12-07T00:16:42;2.37;;;1.30;;
21507;SDS011;10915;54.352;9.074;2022-12-07T00:19:10;3.27;;;1.60;;
21507;SDS011;10915;54.352;9.074;2022-12-07T00:21:37;3.83;;;1.40;;
21507;SDS011;10915;54.352;9.074;2022-12-07T00:24:03;4.13;;;1.50;;
21507;SDS011;10915;54.352;9.074;2022-12-07T00:26:34;2.40;;;1.20;;
21507;SDS011;10915;54.352;9.074;2022-12-07T00:29:05;3.67;;;1.23;;
21507;SDS011;10915;54.352;9.074;2022-12-07T00:31:36;4.97;;;1.47;;
21507;SDS011;10915;54.352;9.074;2022-12-07T00:34:04;6.80;;;1.33;;
21507;SDS011;10915;54.352;9.074;2022-12-07T00:36:31;3.53;;;1.50;;
21507;SDS011;10915;54.352;9.074;2022-12-07T00:38:57;3.47;;;1.30;;
21507;SDS011;10915;54.352;9.074;2022-12-07T00:41:24;4.53;;;1.80;;
21507;SDS011;10915;54.352;9.074;2022-12-07T00:43:53;6.10;;;1.50;;
21507;SDS011;10915;54.352;9.074;2022-12-07T00:46:19;4.30;;;1.60;;
21507;SDS011;10915;54.352;9.074;2022-12-07T00:48:46;3.43;;;1.47;;
21507;SDS011;10915;54.352;9.074;2022-12-07T00:51:14;5.43;;;1.60;;
21507;SDS011;10915;54.352;9.074;2022-12-07T00:53:40;5.00;;;1.50;;
21507;SDS011;10915;54.352;9.074;2022-12-07T00:58:39;5.33;;;1.70;;
21507;SDS011;10915;54.352;9.074;2022-12-07T01:01:06;10.67;;;2.17;;
21507;SDS011;10915;54.352;9.074;2022-12-07T01:03:33;9.37;;;2.40;;
21507;SDS011;10915;54.352;9.074;2022-12-07T01:05:58;4.27;;;2.20;;
21507;SDS011;10915;54.352;9.074;2022-12-07T01:08:24;7.90;;;3.13;;
21507;SDS011;10915;54.352;9.074;2022-12-07T01:11:01;11.00;;;3.87;;
21507;SDS011;10915;54.352;9.074;2022-12-07T01:13:32;9.47;;;4.27;;
21507;SDS011;10915;54.352;9.074;2022-12-07T01:15:59;10.67;;;4.40;;
21507;SDS011;10915;54.352;9.074;2022-12-07T01:18:27;8.70;;;4.30;;
21507;SDS011;10915;54.352;9.074;2022-12-07T01:21:00;12.70;;;5.20;;
21507;SDS011;10915;54.352;9.074;2022-12-07T01:23:28;12.83;;;5.30;;
21507;SDS011;10915;54.352;9.074;2022-12-07T01:25:55;15.93;;;5.70;;
21507;SDS011;10915;54.352;9.074;2022-12-07T01:28:22;14.13;;;6.57;;
21507;SDS011;10915;54.352;9.074;2022-12-07T01:31:01;12.03;;;6.73;;
21507;SDS011;10915;54.352;9.074;2022-12-07T01:33:29;14.57;;;7.37;;
21507;SDS011;10915;54.352;9.074;2022-12-07T01:36:07;14.57;;;8.10;;
21507;SDS011;10915;54.352;9.074;2022-12-07T01:38:43;16.87;;;8.50;;
21507;SDS011;10915;54.352;9.074;2022-12-07T01:41:10;17.03;;;9.37;;
21507;SDS011;10915;54.352;9.074;2022-12-07T01:43:36;15.93;;;9.23;;
21507;SDS011;10915;54.352;9.074;2022-12-07T01:46:22;14.50;;;9.37;;
21507;SDS011;10915;54.352;9.074;2022-12-07T01:48:47;15.87;;;9.43;;
21507;SDS011;10915;54.352;9.074;2022-12-07T01:51:13;16.37;;;9.40;;
21507;SDS011;10915;54.352;9.074;2022-12-07T01:53:42;13.77;;;9.13;;
21507;SDS011;10915;54.352;9.074;2022-12-07T01:56:10;13.67;;;9.13;;
21507;SDS011;10915;54.352;9.074;2022-12-07T01:58:41;14.07;;;8.97;;
21507;SDS011;10915;54.352;9.074;2022-12-07T02:01:08;15.90;;;9.70;;
21507;SDS011;10915;54.352;9.074;2022-12-07T02:03:41;17.73;;;9.30;;
21507;SDS011;10915;54.352;9.074;2022-12-07T02:06:09;16.53;;;9.77;;
21507;SDS011;10915;54.352;9.074;2022-12-07T02:08:38;14.47;;;10.37;;
21507;SDS011;10915;54.352;9.074;2022-12-07T02:11:05;15.47;;;10.80;;
21507;SDS011;10915;54.352;9.074;2022-12-07T02:13:32;16.77;;;10.60;;
21507;SDS011;10915;54.352;9.074;2022-12-07T02:30:01;16.57;;;11.03;;
21507;SDS011;10915;54.352;9.074;2022-12-07T02:32:59;17.33;;;11.43;;
21507;SDS011;10915;54.352;9.074;2022-12-07T02:35:39;17.27;;;11.60;;
21507;SDS011;10915;54.352;9.074;2022-12-07T02:38:13;18.50;;;11.60;;
21507;SDS011;10915;54.352;9.074;2022-12-07T02:40:48;21.97;;;12.13;;
21507;SDS011;10915;54.352;9.074;2022-12-07T02:43:25;16.17;;;11.20;;
21507;SDS011;10915;54.352;9.074;2022-12-07T02:46:09;19.67;;;11.77;;
21507;SDS011;10915;54.352;9.074;2022-12-07T02:48:38;16.60;;;12.37;;
21507;SDS011;10915;54.352;9.074;2022-12-07T02:51:06;19.57;;;12.63;;
21507;SDS011;10915;54.352;9.074;2022-12-07T02:53:36;19.23;;;12.60;;
21507;SDS011;10915;54.352;9.074;2022-12-07T02:58:49;22.13;;;13.40;;
21507;SDS011;10915;54.352;9.074;2022-12-07T03:01:30;17.67;;;13.00;;
21507;SDS011;10915;54.352;9.074;2022-12-07T03:04:02;18.73;;;13.27;;
21507;SDS011;10915;54.352;9.074;2022-12-07T03:06:43;19.83;;;12.80;;
21507;SDS011;10915;54.352;9.074;2022-12-07T03:09:30;19.97;;;12.67;;
21507;SDS011;10915;54.352;9.074;2022-12-07T03:12:05;19.87;;;12.77;;
21507;SDS011;10915;54.352;9.074;2022-12-07T03:14:33;20.57;;;12.63;;
21507;SDS011;10915;54.352;9.074;2022-12-07T03:17:07;22.00;;;13.70;;
21507;SDS011;10915;54.352;9.074;2022-12-07T03:19:39;21.73;;;14.27;;
21507;SDS011;10915;54.352;9.074;2022-12-07T03:22:10;23.70;;;14.57;;
21507;SDS011;10915;54.352;9.074;2022-12-07T03:24:48;23.07;;;13.90;;
21507;SDS011;10915;54.352;9.074;2022-12-07T03:28:01;20.63;;;14.43;;
21507;SDS011;10915;54.352;9.074;2022-12-07T03:30:24;20.40;;;14.33;;
21507;SDS011;10915;54.352;9.074;2022-12-07T03:33:16;20.37;;;14.53;;
21507;SDS011;10915;54.352;9.074;2022-12-07T03:38:50;25.67;;;15.07;;
21507;SDS011;10915;54.352;9.074;2022-12-07T03:41:39;27.53;;;16.67;;
21507;SDS011;10915;54.352;9.074;2022-12-07T03:44:05;22.37;;;14.87;;
21507;SDS011;10915;54.352;9.074;2022-12-07T03:46:44;23.33;;;15.03;;
21507;SDS011;10915;54.352;9.074;2022-12-07T03:49:32;22.87;;;15.37;;
21507;SDS011;10915;54.352;9.074;2022-12-07T03:52:10;27.90;;;16.67;;
21507;SDS011;10915;54.352;9.074;2022-12-07T03:57:10;22.63;;;16.33;;
21507;SDS011;10915;54.352;9.074;2022-12-07T03:59:37;29.40;;;18.23;;
21507;SDS011;10915;54.352;9.074;2022-12-07T04:02:05;24.00;;;15.73;;
21507;SDS011;10915;54.352;9.074;2022-12-07T04:04:32;24.23;;;15.60;;
21507;SDS011;10915;54.352;9.074;2022-12-07T04:06:59;24.50;;;15.50;;
21507;SDS011;10915;54.352;9.074;2022-12-07T04:09:25;23.63;;;15.87;;
21507;SDS011;10915;54.352;9.074;2022-12-07T04:11:51;25.53;;;16.67;;
21507;SDS011;10915;54.352;9.074;2022-12-07T04:14:17;31.07;;;16.83;;
21507;SDS011;10915;54.352;9.074;2022-12-07T04:19:11;26.60;;;16.73;;
21507;SDS011;10915;54.352;9.074;2022-12-07T04:21:37;27.20;;;16.77;;
21507;SDS011;10915;54.352;9.074;2022-12-07T04:24:04;28.10;;;16.73;;
21507;SDS011;10915;54.352;9.074;2022-12-07T04:26:30;29.63;;;17.03;;
21507;SDS011;10915;54.352;9.074;2022-12-07T04:28:55;22.47;;;15.93;;
21507;SDS011;10915;54.352;9.074;2022-12-07T04:31:21;24.47;;;15.63;;
21507;SDS011;10915;54.352;9.074;2022-12-07T04:33:47;24.93;;;15.53;;
21507;SDS011;10915;54.352;9.074;2022-12-07T04:36:12;24.73;;;14.93;;
21507;SDS011;10915;54.352;9.074;2022-12-07T04:38:38;22.93;;;14.63;;
21507;SDS011;10915;54.352;9.074;2022-12-07T04:41:07;21.40;;;14.43;;
21507;SDS011;10915;54.352;9.074;2022-12-07T04:43:34;22.00;;;14.90;;
21507;SDS011;10915;54.352;9.074;2022-12-07T04:46:00;20.07;;;12.83;;
21507;SDS011;10915;54.352;9.074;2022-12-07T04:48:26;19.20;;;12.93;;
21507;SDS011;10915;54.352;9.074;2022-12-07T04:50:52;20.37;;;13.00;;
21507;SDS011;10915;54.352;9.074;2022-12-07T04:53:18;19.83;;;12.17;;
21507;SDS011;10915;54.352;9.074;2022-12-07T04:55:44;18.23;;;11.80;;
21507;SDS011;10915;54.352;9.074;2022-12-07T04:58:10;16.77;;;11.73;;
21507;SDS011;10915;54.352;9.074;2022-12-07T05:00:37;16.27;;;10.50;;
21507;SDS011;10915;54.352;9.074;2022-12-07T05:03:02;17.00;;;10.17;;
21507;SDS011;10915;54.352;9.074;2022-12-07T05:05:28;18.50;;;10.70;;
21507;SDS011;10915;54.352;9.074;2022-12-07T05:07:54;17.30;;;10.23;;
21507;SDS011;10915;54.352;9.074;2022-12-07T05:10:19;16.47;;;9.73;;
21507;SDS011;10915;54.352;9.074;2022-12-07T05:12:45;16.40;;;9.73;;
21507;SDS011;10915;54.352;9.074;2022-12-07T05:15:12;13.43;;;9.20;;
21507;SDS011;10915;54.352;9.074;2022-12-07T05:17:38;12.30;;;8.17;;
21507;SDS011;10915;54.352;9.074;2022-12-07T05:20:04;14.23;;;7.97;;
21507;SDS011;10915;54.352;9.074;2022-12-07T05:22:30;18.37;;;8.40;;
21507;SDS011;10915;54.352;9.074;2022-12-07T05:24:56;11.67;;;8.33;;
21507;SDS011;10915;54.352;9.074;2022-12-07T05:27:22;14.07;;;8.53;;
21507;SDS011;10915;54.352;9.074;2022-12-07T05:29:49;13.90;;;8.70;;
21507;SDS011;10915;54.352;9.074;2022-12-07T05:32:15;14.83;;;8.73;;
21507;SDS011;10915;54.352;9.074;2022-12-07T05:34:41;14.00;;;8.40;;
21507;SDS011;10915;54.352;9.074;2022-12-07T05:37:07;12.67;;;7.77;;
21507;SDS011;10915;54.352;9.074;2022-12-07T05:39:33;17.13;;;8.33;;
21507;SDS011;10915;54.352;9.074;2022-12-07T05:41:58;15.17;;;8.33;;
21507;SDS011;10915;54.352;9.074;2022-12-07T05:47:06;11.77;;;7.80;;
21507;SDS011;10915;54.352;9.074;2022-12-07T05:49:32;15.17;;;8.13;;
21507;SDS011;10915;54.352;9.074;2022-12-07T05:51:58;14.13;;;7.30;;
21507;SDS011;10915;54.352;9.074;2022-12-07T05:54:23;14.83;;;7.53;;
21507;SDS011;10915;54.352;9.074;2022-12-07T05:56:49;12.30;;;6.93;;
21507;SDS011;10915;54.352;9.074;2022-12-07T05:59:15;14.47;;;7.03;;
21507;SDS011;10915;54.352;9.074;2022-12-07T06:02:07;15.43;;;6.27;;
21507;SDS011;10915;54.352;9.074;2022-12-07T06:04:36;12.93;;;5.97;;
21507;SDS011;10915;54.352;9.074;2022-12-07T06:07:03;12.30;;;6.13;;
21507;SDS011;10915;54.352;9.074;2022-12-07T06:09:30;11.10;;;5.73;;
21507;SDS011;10915;54.352;9.074;2022-12-07T06:11:56;11.53;;;5.00;;
21507;SDS011;10915;54.352;9.074;2022-12-07T06:14:41;10.07;;;5.77;;
21507;SDS011;10915;54.352;9.074;2022-12-07T06:17:07;10.77;;;4.90;;
21507;SDS011;10915;54.352;9.074;2022-12-07T06:19:33;14.07;;;5.00;;
21507;SDS011;10915;54.352;9.074;2022-12-07T06:22:00;14.13;;;5.13;;
21507;SDS011;10915;54.352;9.074;2022-12-07T06:24:26;11.90;;;5.10;;
21507;SDS011;10915;54.352;9.074;2022-12-07T06:26:52;15.53;;;4.30;;
21507;SDS011;10915;54.352;9.074;2022-12-07T06:29:17;11.83;;;4.80;;
21507;SDS011;10915;54.352;9.074;2022-12-07T06:31:44;10.20;;;4.43;;
21507;SDS011;10915;54.352;9.074;2022-12-07T06:34:11;8.77;;;4.10;;
21507;SDS011;10915;54.352;9.074;2022-12-07T06:36:38;10.13;;;4.20;;
21507;SDS011;10915;54.352;9.074;2022-12-07T06:39:04;12.80;;;4.00;;
21507;SDS011;10915;54.352;9.074;2022-12-07T06:41:31;9.87;;;3.37;;
21507;SDS011;10915;54.352;9.074;2022-12-07T06:43:57;8.97;;;2.80;;
21507;SDS011;10915;54.352;9.074;2022-12-07T06:46:22;9.93;;;2.40;;
21507;SDS011;10915;54.352;9.074;2022-12-07T06:48:49;11.20;;;2.70;;
21507;SDS011;10915;54.352;9.074;2022-12-07T06:51:14;11.70;;;2.83;;
21507;SDS011;10915;54.352;9.074;2022-12-07T06:53:40;12.73;;;2.80;;
21507;SDS011;10915;54.352;9.074;2022-12-07T06:56:06;9.20;;;3.17;;
21507;SDS011;10915;54.352;9.074;2022-12-07T06:58:32;10.67;;;2.33;;
21507;SDS011;10915;54.352;9.074;2022-12-07T07:00:58;11.63;;;2.57;;
21507;SDS011;10915;54.352;9.074;2022-12-07T07:03:23;12.70;;;3.00;;
21507;SDS011;10915;54.352;9.074;2022-12-07T07:05:49;16.23;;;2.93;;
21507;SDS011;10915;54.352;9.074;2022-12-07T07:08:15;8.07;;;2.00;;
21507;SDS011;10915;54.352;9.074;2022-12-07T07:10:40;12.77;;;2.90;;
21507;SDS011;10915;54.352;9.074;2022-12-07T07:13:06;9.40;;;2.27;;
21507;SDS011;10915;54.352;9.074;2022-12-07T07:15:33;12.07;;;2.70;;
21507;SDS011;10915;54.352;9.074;2022-12-07T07:17:59;9.13;;;2.33;;
21507;SDS011;10915;54.352;9.074;2022-12-07T07:20:24;9.47;;;2.27;;
21507;SDS011;10915;54.352;9.074;2022-12-07T07:22:50;10.90;;;2.57;;
21507;SDS011;10915;54.352;9.074;2022-12-07T07:25:18;10.87;;;2.13;;
21507;SDS011;10915;54.352;9.074;2022-12-07T07:27:44;14.73;;;3.13;;
21507;SDS011;10915;54.352;9.074;2022-12-07T07:30:10;13.70;;;3.03;;
21507;SDS011;10915;54.352;9.074;2022-12-07T07:32:37;11.53;;;3.03;;
21507;SDS011;10915;54.352;9.074;2022-12-07T07:35:03;11.63;;;2.50;;
21507;SDS011;10915;54.352;9.074;2022-12-07T07:37:29;13.53;;;2.80;;
21507;SDS011;10915;54.352;9.074;2022-12-07T07:39:55;16.63;;;2.77;;
21507;SDS011;10915;54.352;9.074;2022-12-07T07:42:20;13.73;;;2.57;;
21507;SDS011;10915;54.352;9.074;2022-12-07T07:44:46;10.53;;;2.83;;
21507;SDS011;10915;54.352;9.074;2022-12-07T07:47:12;12.03;;;2.70;;
21507;SDS011;10915;54.352;9.074;2022-12-07T07:49:37;11.17;;;2.33;;
21507;SDS011;10915;54.352;9.074;2022-12-07T07:52:04;12.00;;;2.33;;
21507;SDS011;10915;54.352;9.074;2022-12-07T07:54:31;15.97;;;2.73;;
21507;SDS011;10915;54.352;9.074;2022-12-07T07:56:56;9.13;;;2.50;;
21507;SDS011;10915;54.352;9.074;2022-12-07T07:59:22;16.03;;;3.30;;
21507;SDS011;10915;54.352;9.074;2022-12-07T08:01:49;9.83;;;2.80;;
21507;SDS011;10915;54.352;9.074;2022-12-07T08:04:15;15.87;;;2.60;;
21507;SDS011;10915;54.352;9.074;2022-12-07T08:06:41;11.40;;;2.63;;
21507;SDS011;10915;54.352;9.074;2022-12-07T08:09:07;9.10;;;2.83;;
21507;SDS011;10915;54.352;9.074;2022-12-07T08:11:34;11.03;;;2.50;;
21507;SDS011;10915;54.352;9.074;2022-12-07T08:14:01;11.17;;;2.60;;
21507;SDS011;10915;54.352;9.074;2022-12-07T08:16:27;11.53;;;1.97;;
21507;SDS011;10915;54.352;9.074;2022-12-07T08:18:53;12.43;;;2.33;;
21507;SDS011;10915;54.352;9.074;2022-12-07T08:21:21;13.20;;;2.70;;
21507;SDS011;10915;54.352;9.074;2022-12-07T08:23:46;11.97;;;2.67;;
21507;SDS011;10915;54.352;9.074;2022-12-07T08:26:13;11.90;;;2.53;;
21507;SDS011;10915;54.352;9.074;2022-12-07T08:28:41;7.93;;;1.90;;
21507;SDS011;10915;54.352;9.074;2022-12-07T08:31:10;10.13;;;2.50;;
21507;SDS011;10915;54.352;9.074;2022-12-07T08:33:38;13.60;;;2.67;;
21507;SDS011;10915;54.352;9.074;2022-12-07T08:36:05;15.50;;;3.03;;
21507;SDS011;10915;54.352;9.074;2022-12-07T08:38:34;7.73;;;2.20;;
21507;SDS011;10915;54.352;9.074;2022-12-07T08:41:00;16.67;;;3.47;;
21507;SDS011;10915;54.352;9.074;2022-12-07T08:43:27;13.57;;;3.00;;
21507;SDS011;10915;54.352;9.074;2022-12-07T08:48:34;13.10;;;2.43;;
21507;SDS011;10915;54.352;9.074;2022-12-07T08:51:04;13.43;;;2.77;;
21507;SDS011;10915;54.352;9.074;2022-12-07T08:53:29;16.17;;;3.53;;
21507;SDS011;10915;54.352;9.074;2022-12-07T08:55:56;13.17;;;2.83;;
21507;SDS011;10915;54.352;9.074;2022-12-07T08:58:24;13.13;;;2.60;;
21507;SDS011;10915;54.352;9.074;2022-12-07T09:00:50;8.20;;;2.47;;
21507;SDS011;10915;54.352;9.074;2022-12-07T09:03:15;13.07;;;2.40;;
21507;SDS011;10915;54.352;9.074;2022-12-07T09:05:41;11.00;;;2.43;;
21507;SDS011;10915;54.352;9.074;2022-12-07T09:08:07;13.30;;;2.63;;
21507;SDS011;10915;54.352;9.074;2022-12-07T09:10:33;11.90;;;2.57;;
21507;SDS011;10915;54.352;9.074;2022-12-07T09:12:59;10.20;;;2.43;;
21507;SDS011;10915;54.352;9.074;2022-12-07T09:15:28;11.70;;;2.80;;
21507;SDS011;10915;54.352;9.074;2022-12-07T09:17:53;8.23;;;2.37;;
21507;SDS011;10915;54.352;9.074;2022-12-07T09:20:19;11.83;;;2.40;;
21507;SDS011;10915;54.352;9.074;2022-12-07T09:22:45;12.65;;;3.05;;
21507;SDS011;10915;54.352;9.074;2022-12-07T09:25:10;12.73;;;3.08;;
21507;SDS011;10915;54.352;9.074;2022-12-07T09:27:36;16.08;;;3.13;;
21507;SDS011;10915;54.352;9.074;2022-12-07T09:30:02;13.83;;;3.93;;
21507;SDS011;10915;54.352;9.074;2022-12-07T09:32:29;12.10;;;3.10;;
21507;SDS011;10915;54.352;9.074;2022-12-07T09:34:55;11.87;;;2.70;;
21507;SDS011;10915;54.352;9.074;2022-12-07T09:37:21;12.87;;;2.90;;
21507;SDS011;10915;54.352;9.074;2022-12-07T09:39:47;12.43;;;2.67;;
21507;SDS011;10915;54.352;9.074;2022-12-07T09:44:55;8.83;;;2.67;;
21507;SDS011;10915;54.352;9.074;2022-12-07T09:47:21;11.00;;;2.83;;
21507;SDS011;10915;54.352;9.074;2022-12-07T09:49:47;9.53;;;3.33;;
21507;SDS011;10915;54.352;9.074;2022-12-07T09:54:50;8.13;;;2.33;;
21507;SDS011;10915;54.352;9.074;2022-12-07T09:57:16;10.77;;;2.10;;
21507;SDS011;10915;54.352;9.074;2022-12-07T09:59:44;10.63;;;1.90;;
21507;SDS011;10915;54.352;9.074;2022-12-07T10:02:19;14.93;;;2.87;;
21507;SDS011;10915;54.352;9.074;2022-12-07T10:05:03;9.57;;;2.23;;
21507;SDS011;10915;54.352;9.074;2022-12-07T10:07:30;8.00;;;2.13;;
21507;SDS011;10915;54.352;9.074;2022-12-07T10:09:56;10.17;;;2.30;;
21507;SDS011;10915;54.352;9.074;2022-12-07T10:12:22;7.10;;;2.50;;
21507;SDS011;10915;54.352;9.074;2022-12-07T10:15:09;6.30;;;2.50;;
21507;SDS011;10915;54.352;9.074;2022-12-07T10:17:40;8.30;;;3.20;;
21507;SDS011;10915;54.352;9.074;2022-12-07T10:22:59;10.73;;;3.87;;
21507;SDS011;10915;54.352;9.074;2022-12-07T10:25:30;11.77;;;3.23;;
21507;SDS011;10915;54.352;9.074;2022-12-07T10:30:53;10.83;;;2.43;;
21507;SDS011;10915;54.352;9.074;2022-12-07T10:33:31;8.10;;;2.10;;
21507;SDS011;10915;54.352;9.074;2022-12-07T10:36:00;6.17;;;1.80;;
21507;SDS011;10915;54.352;9.074;2022-12-07T10:38:35;9.33;;;2.27;;
21507;SDS011;10915;54.352;9.074;2022-12-07T10:41:35;10.05;;;1.95;;
21507;SDS011;10915;54.352;9.074;2022-12-07T10:44:01;8.03;;;1.57;;
21507;SDS011;10915;54.352;9.074;2022-12-07T11:00:24;7.93;;;2.27;;
21507;SDS011;10915;54.352;9.074;2022-12-07T11:05:43;6.93;;;1.92;;
21507;SDS011;10915;54.352;9.074;2022-12-07T11:11:33;6.43;;;1.70;;
21507;SDS011;10915;54.352;9.074;2022-12-07T11:14:05;9.87;;;1.80;;
21507;SDS011;10915;54.352;9.074;2022-12-07T11:25:32;4.77;;;1.80;;
21507;SDS011;10915;54.352;9.074;2022-12-07T11:30:57;5.27;;;1.30;;
21507;SDS011;10915;54.352;9.074;2022-12-07T11:33:29;8.03;;;1.70;;
21507;SDS011;10915;54.352;9.074;2022-12-07T11:38:52;5.80;;;1.47;;
21507;SDS011;10915;54.352;9.074;2022-12-07T11:41:22;3.40;;;1.00;;
21507;SDS011;10915;54.352;9.074;2022-12-07T11:43:54;6.83;;;1.23;;
21507;SDS011;10915;54.352;9.074;2022-12-07T11:46:20;9.80;;;1.83;;
21507;SDS011;10915;54.352;9.074;2022-12-07T11:48:53;5.33;;;0.87;;
21507;SDS011;10915;54.352;9.074;2022-12-07T11:51:36;4.03;;;0.83;;
21507;SDS011;10915;54.352;9.074;2022-12-07T11:54:12;3.97;;;1.23;;
21507;SDS011;10915;54.352;9.074;2022-12-07T11:56:43;5.33;;;1.00;;
21507;SDS011;10915;54.352;9.074;2022-12-07T12:01:47;3.63;;;1.07;;
21507;SDS011;10915;54.352;9.074;2022-12-07T12:04:28;4.20;;;1.17;;
21507;SDS011;10915;54.352;9.074;2022-12-07T12:06:56;3.13;;;0.80;;
21507;SDS011;10915;54.352;9.074;2022-12-07T12:20:41;5.23;;;1.40;;
21507;SDS011;10915;54.352;9.074;2022-12-07T12:26:06;7.37;;;1.13;;
21507;SDS011;10915;54.352;9.074;2022-12-07T12:31:35;5.93;;;1.60;;
21507;SDS011;10915;54.352;9.074;2022-12-07T12:34:29;4.00;;;1.03;;
21507;SDS011;10915;54.352;9.074;2022-12-07T12:36:56;2.40;;;0.80;;
21507;SDS011;10915;54.352;9.074;2022-12-07T12:39:22;3.67;;;0.97;;
21507;SDS011;10915;54.352;9.074;2022-12-07T12:47:41;3.40;;;1.03;;
21507;SDS011;10915;54.352;9.074;2022-12-07T12:52:47;3.60;;;1.00;;
21507;SDS011;10915;54.352;9.074;2022-12-07T12:55:21;5.35;;;1.35;;
21507;SDS011;10915;54.352;9.074;2022-12-07T13:01:31;9.03;;;0.90;;
21507;SDS011;10915;54.352;9.074;2022-12-07T13:03:55;3.33;;;0.90;;
21507;SDS011;10915;54.352;9.074;2022-12-07T13:08:52;3.10;;;0.80;;
21507;SDS011;10915;54.352;9.074;2022-12-07T13:17:02;4.30;;;0.90;;
21507;SDS011;10915;54.352;9.074;2022-12-07T13:25:17;3.57;;;0.93;;
21507;SDS011;10915;54.352;9.074;2022-12-07T13:28:16;5.07;;;0.73;;
21507;SDS011;10915;54.352;9.074;2022-12-07T13:30:50;2.73;;;0.80;;
21507;SDS011;10915;54.352;9.074;2022-12-07T13:33:19;3.33;;;0.67;;
21507;SDS011;10915;54.352;9.074;2022-12-07T13:35:45;3.63;;;0.50;;
21507;SDS011;10915;54.352;9.074;2022-12-07T13:38:25;7.07;;;1.10;;
21507;SDS011;10915;54.352;9.074;2022-12-07T13:41:01;3.53;;;0.90;;
21507;SDS011;10915;54.352;9.074;2022-12-07T13:49:23;5.63;;;1.10;;
21507;SDS011;10915;54.352;9.074;2022-12-07T13:51:52;4.03;;;0.53;;
21507;SDS011;10915;54.352;9.074;2022-12-07T13:54:18;3.33;;;0.57;;
21507;SDS011;10915;54.352;9.074;2022-12-07T13:56:49;4.37;;;0.80;;
21507;SDS011;10915;54.352;9.074;2022-12-07T13:59:18;2.00;;;0.57;;
21507;SDS011;10915;54.352;9.074;2022-12-07T14:01:46;3.43;;;0.77;;
21507;SDS011;10915;54.352;9.074;2022-12-07T14:05:05;2.70;;;0.70;;
21507;SDS011;10915;54.352;9.074;2022-12-07T14:07:25;3.03;;;1.00;;
21507;SDS011;10915;54.352;9.074;2022-12-07T14:09:57;4.27;;;0.87;;
21507;SDS011;10915;54.352;9.074;2022-12-07T14:12:24;3.27;;;0.97;;
21507;SDS011;10915;54.352;9.074;2022-12-07T14:14:51;3.43;;;0.80;;
21507;SDS011;10915;54.352;9.074;2022-12-07T14:17:19;2.10;;;0.80;;
21507;SDS011;10915;54.352;9.074;2022-12-07T14:22:34;4.53;;;0.70;;
21507;SDS011;10915;54.352;9.074;2022-12-07T14:27:48;4.90;;;1.17;;
21507;SDS011;10915;54.352;9.074;2022-12-07T14:30:14;2.30;;;0.80;;
21507;SDS011;10915;54.352;9.074;2022-12-07T14:32:42;4.37;;;1.20;;
21507;SDS011;10915;54.352;9.074;2022-12-07T14:35:13;1.60;;;0.70;;
21507;SDS011;10915;54.352;9.074;2022-12-07T14:37:41;4.53;;;1.70;;
21507;SDS011;10915;54.352;9.074;2022-12-07T14:40:12;3.87;;;2.60;;
21507;SDS011;10915;54.352;9.074;2022-12-07T14:42:39;5.53;;;3.70;;
21507;SDS011;10915;54.352;9.074;2022-12-07T14:45:11;4.30;;;3.23;;
21507;SDS011;10915;54.352;9.074;2022-12-07T14:47:42;6.17;;;2.57;;
21507;SDS011;10915;54.352;9.074;2022-12-07T14:50:10;2.67;;;1.60;;
21507;SDS011;10915;54.352;9.074;2022-12-07T14:52:37;4.67;;;1.90;;
21507;SDS011;10915;54.352;9.074;2022-12-07T14:55:04;3.03;;;1.30;;
21507;SDS011;10915;54.352;9.074;2022-12-07T14:57:30;4.90;;;1.50;;
21507;SDS011;10915;54.352;9.074;2022-12-07T14:59:56;3.97;;;1.20;;
21507;SDS011;10915;54.352;9.074;2022-12-07T15:02:21;3.50;;;1.20;;
21507;SDS011;10915;54.352;9.074;2022-12-07T15:04:47;3.40;;;1.40;;
21507;SDS011;10915;54.352;9.074;2022-12-07T15:07:15;2.80;;;0.80;;
21507;SDS011;10915;54.352;9.074;2022-12-07T15:09:45;3.73;;;1.47;;
21507;SDS011;10915;54.352;9.074;2022-12-07T15:12:11;4.80;;;1.60;;
21507;SDS011;10915;54.352;9.074;2022-12-07T15:14:36;3.37;;;1.53;;
21507;SDS011;10915;54.352;9.074;2022-12-07T15:17:02;4.13;;;1.33;;
21507;SDS011;10915;54.352;9.074;2022-12-07T15:19:28;5.03;;;1.00;;
21507;SDS011;10915;54.352;9.074;2022-12-07T15:21:54;5.23;;;1.87;;
21507;SDS011;10915;54.352;9.074;2022-12-07T15:24:20;4.73;;;1.57;;
21507;SDS011;10915;54.352;9.074;2022-12-07T15:26:46;4.77;;;2.40;;
21507;SDS011;10915;54.352;9.074;2022-12-07T15:29:12;5.13;;;1.83;;
21507;SDS011;10915;54.352;9.074;2022-12-07T15:31:39;5.27;;;1.87;;
21507;SDS011;10915;54.352;9.074;2022-12-07T15:34:05;3.90;;;1.50;;
21507;SDS011;10915;54.352;9.074;2022-12-07T15:36:32;8.20;;;2.07;;
21507;SDS011;10915;54.352;9.074;2022-12-07T15:38:58;3.57;;;1.37;;
21507;SDS011;10915;54.352;9.074;2022-12-07T15:41:25;3.87;;;1.47;;
21507;SDS011;10915;54.352;9.074;2022-12-07T15:43:51;3.73;;;1.27;;
21507;SDS011;10915;54.352;9.074;2022-12-07T15:46:39;3.10;;;0.90;;
21507;SDS011;10915;54.352;9.074;2022-12-07T15:49:14;3.63;;;1.00;;
21507;SDS011;10915;54.352;9.074;2022-12-07T15:51:41;2.50;;;1.03;;
21507;SDS011;10915;54.352;9.074;2022-12-07T15:54:09;5.43;;;1.50;;
21507;SDS011;10915;54.352;9.074;2022-12-07T15:56:47;4.97;;;1.70;;
21507;SDS011;10915;54.352;9.074;2022-12-07T15:59:13;3.93;;;1.20;;
21507;SDS011;10915;54.352;9.074;2022-12-07T16:01:39;3.43;;;1.20;;
21507;SDS011;10915;54.352;9.074;2022-12-07T16:04:04;4.13;;;1.50;;
21507;SDS011;10915;54.352;9.074;2022-12-07T16:06:30;3.13;;;1.70;;
21507;SDS011;10915;54.352;9.074;2022-12-07T16:08:56;3.53;;;1.90;;
21507;SDS011;10915;54.352;9.074;2022-12-07T16:11:22;3.70;;;1.47;;
21507;SDS011;10915;54.352;9.074;2022-12-07T16:13:48;3.30;;;1.60;;
21507;SDS011;10915;54.352;9.074;2022-12-07T16:16:15;3.63;;;1.50;;
21507;SDS011;10915;54.352;9.074;2022-12-07T16:18:43;4.13;;;1.93;;
21507;SDS011;10915;54.352;9.074;2022-12-07T16:21:09;4.07;;;1.73;;
21507;SDS011;10915;54.352;9.074;2022-12-07T16:23:35;4.47;;;2.60;;
21507;SDS011;10915;54.352;9.074;2022-12-07T16:26:08;7.07;;;4.00;;
21507;SDS011;10915;54.352;9.074;2022-12-07T16:28:36;7.77;;;3.77;;
21507;SDS011;10915;54.352;9.074;2022-12-07T16:31:03;8.53;;;3.33;;
21507;SDS011;10915;54.352;9.074;2022-12-07T16:33:31;5.80;;;3.73;;
21507;SDS011;10915;54.352;9.074;2022-12-07T16:36:00;5.83;;;3.67;;
21507;SDS011;10915;54.352;9.074;2022-12-07T16:38:26;5.37;;;2.97;;
21507;SDS011;10915;54.352;9.074;2022-12-07T16:40:52;5.17;;;2.70;;
21507;SDS011;10915;54.352;9.074;2022-12-07T16:43:18;5.33;;;2.90;;
21507;SDS011;10915;54.352;9.074;2022-12-07T16:45:45;5.17;;;2.73;;
21507;SDS011;10915;54.352;9.074;2022-12-07T16:48:12;5.80;;;2.50;;
21507;SDS011;10915;54.352;9.074;2022-12-07T16:50:39;6.17;;;3.17;;
21507;SDS011;10915;54.352;9.074;2022-12-07T16:53:06;3.30;;;2.33;;
21507;SDS011;10915;54.352;9.074;2022-12-07T16:55:35;4.70;;;3.00;;
21507;SDS011;10915;54.352;9.074;2022-12-07T16:58:02;7.13;;;3.50;;
21507;SDS011;10915;54.352;9.074;2022-12-07T17:00:27;7.23;;;3.33;;
21507;SDS011;10915;54.352;9.074;2022-12-07T17:02:53;4.43;;;3.30;;
21507;SDS011;10915;54.352;9.074;2022-12-07T17:05:20;6.27;;;3.40;;